sensor_id;sensor_type;location;lat;lon;timestamp;P1;durP1;ratioP1;P2;durP2;ratioP2
47153;SDS011;32907;41.412;2.164;2023-02-26T00:01:48;7.60;;;5.30;;
47153;SDS011;32907;41.412;2.164;2023-02-26T00:04:16;7.70;;;5.80;;
47153;SDS011;32907;41.412;2.164;2023-02-26T00:06:44;6.57;;;4.75;;
47153;SDS011;32907;41.412;2.164;2023-02-26T00:09:22;7.88;;;4.55;;
47153;SDS011;32907;41.412;2.164;2023-02-26T00:11:50;7.03;;;4.70;;
47153;SDS011;32907;41.412;2.164;2023-02-26T00:14:20;7.63;;;4.72;;
47153;SDS011;32907;41.412;2.164;2023-02-26T00:16:57;7.07;;;4.60;;
47153;SDS011;32907;41.412;2.164;2023-02-26T00:19:41;6.25;;;3.97;;
47153;SDS011;32907;41.412;2.164;2023-02-26T00:22:09;6.70;;;4.32;;
47153;SDS011;32907;41.412;2.164;2023-02-26T00:24:37;5.55;;;4.40;;
47153;SDS011;32907;41.412;2.164;2023-02-26T00:27:05;6.82;;;3.80;;
47153;SDS011;32907;41.412;2.164;2023-02-26T00:29:38;6.22;;;4.05;;
47153;SDS011;32907;41.412;2.164;2023-02-26T00:32:06;6.07;;;4.30;;
47153;SDS011;32907;41.412;2.164;2023-02-26T00:34:35;5.75;;;4.10;;
47153;SDS011;32907;41.412;2.164;2023-02-26T00:42:24;5.93;;;4.32;;
47153;SDS011;32907;41.412;2.164;2023-02-26T00:44:54;5.90;;;4.47;;
47153;SDS011;32907;41.412;2.164;2023-02-26T00:55:42;6.00;;;4.50;;
47153;SDS011;32907;41.412;2.164;2023-02-26T00:58:10;6.50;;;4.93;;
47153;SDS011;32907;41.412;2.164;2023-02-26T01:00:38;6.35;;;4.90;;
47153;SDS011;32907;41.412;2.164;2023-02-26T01:03:06;6.25;;;4.90;;
47153;SDS011;32907;41.412;2.164;2023-02-26T01:05:35;9.10;;;5.82;;
47153;SDS011;32907;41.412;2.164;2023-02-26T01:11:12;6.40;;;4.80;;
47153;SDS011;32907;41.412;2.164;2023-02-26T01:13:40;5.88;;;4.53;;
47153;SDS011;32907;41.412;2.164;2023-02-26T01:16:11;6.80;;;4.68;;
47153;SDS011;32907;41.412;2.164;2023-02-26T01:18:49;6.85;;;5.00;;
47153;SDS011;32907;41.412;2.164;2023-02-26T01:22:07;7.55;;;4.78;;
47153;SDS011;32907;41.412;2.164;2023-02-26T01:24:40;5.82;;;4.10;;
47153;SDS011;32907;41.412;2.164;2023-02-26T01:27:09;6.68;;;4.65;;
47153;SDS011;32907;41.412;2.164;2023-02-26T01:29:37;6.60;;;4.50;;
47153;SDS011;32907;41.412;2.164;2023-02-26T01:34:47;7.05;;;4.53;;
47153;SDS011;32907;41.412;2.164;2023-02-26T01:42:50;6.20;;;4.22;;
47153;SDS011;32907;41.412;2.164;2023-02-26T01:45:23;7.38;;;3.80;;
47153;SDS011;32907;41.412;2.164;2023-02-26T01:48:02;5.00;;;3.45;;
47153;SDS011;32907;41.412;2.164;2023-02-26T01:50:58;5.53;;;3.45;;
47153;SDS011;32907;41.412;2.164;2023-02-26T01:53:26;6.38;;;3.88;;
47153;SDS011;32907;41.412;2.164;2023-02-26T01:55:56;4.97;;;4.13;;
47153;SDS011;32907;41.412;2.164;2023-02-26T01:58:29;5.50;;;3.67;;
47153;SDS011;32907;41.412;2.164;2023-02-26T02:01:02;5.63;;;3.60;;
47153;SDS011;32907;41.412;2.164;2023-02-26T02:03:32;5.72;;;3.90;;
47153;SDS011;32907;41.412;2.164;2023-02-26T02:06:09;5.93;;;4.28;;
47153;SDS011;32907;41.412;2.164;2023-02-26T02:08:42;5.25;;;4.05;;
47153;SDS011;32907;41.412;2.164;2023-02-26T02:11:11;5.18;;;3.95;;
47153;SDS011;32907;41.412;2.164;2023-02-26T02:22:23;4.88;;;3.92;;
47153;SDS011;32907;41.412;2.164;2023-02-26T02:28:05;4.90;;;3.55;;
47153;SDS011;32907;41.412;2.164;2023-02-26T02:33:41;5.82;;;4.22;;
47153;SDS011;32907;41.412;2.164;2023-02-26T02:36:28;5.20;;;3.97;;
47153;SDS011;32907;41.412;2.164;2023-02-26T02:39:19;5.20;;;4.22;;
47153;SDS011;32907;41.412;2.164;2023-02-26T02:41:53;4.70;;;3.70;;
47153;SDS011;32907;41.412;2.164;2023-02-26T02:44:25;4.95;;;3.90;;
47153;SDS011;32907;41.412;2.164;2023-02-26T02:46:58;5.38;;;4.07;;
47153;SDS011;32907;41.412;2.164;2023-02-26T02:52:11;4.18;;;3.53;;
47153;SDS011;32907;41.412;2.164;2023-02-26T02:54:46;5.35;;;3.70;;
47153;SDS011;32907;41.412;2.164;2023-02-26T02:57:21;5.22;;;3.33;;
47153;SDS011;32907;41.412;2.164;2023-02-26T02:59:59;4.05;;;3.03;;
47153;SDS011;32907;41.412;2.164;2023-02-26T03:02:42;4.32;;;3.17;;
47153;SDS011;32907;41.412;2.164;2023-02-26T03:05:13;4.38;;;3.30;;
47153;SDS011;32907;41.412;2.164;2023-02-26T03:07:53;3.92;;;3.20;;
47153;SDS011;32907;41.412;2.164;2023-02-26T03:10:24;4.20;;;3.30;;
47153;SDS011;32907;41.412;2.164;2023-02-26T03:12:52;4.78;;;2.95;;
47153;SDS011;32907;41.412;2.164;2023-02-26T03:15:24;3.78;;;3.10;;
47153;SDS011;32907;41.412;2.164;2023-02-26T03:21:07;3.75;;;2.85;;
47153;SDS011;32907;41.412;2.164;2023-02-26T03:23:45;3.70;;;3.20;;
47153;SDS011;32907;41.412;2.164;2023-02-26T03:26:23;4.32;;;3.08;;
47153;SDS011;32907;41.412;2.164;2023-02-26T03:29:26;4.85;;;2.80;;
47153;SDS011;32907;41.412;2.164;2023-02-26T03:31:59;3.55;;;2.67;;
47153;SDS011;32907;41.412;2.164;2023-02-26T03:34:37;3.38;;;2.72;;
47153;SDS011;32907;41.412;2.164;2023-02-26T03:37:37;3.17;;;2.55;;
47153;SDS011;32907;41.412;2.164;2023-02-26T03:40:08;3.80;;;3.08;;
47153;SDS011;32907;41.412;2.164;2023-02-26T03:43:23;4.45;;;2.95;;
47153;SDS011;32907;41.412;2.164;2023-02-26T03:45:53;3.88;;;2.70;;
47153;SDS011;32907;41.412;2.164;2023-02-26T03:48:26;3.47;;;2.70;;
47153;SDS011;32907;41.412;2.164;2023-02-26T03:50:58;3.28;;;2.70;;
47153;SDS011;32907;41.412;2.164;2023-02-26T03:53:53;3.50;;;2.40;;
47153;SDS011;32907;41.412;2.164;2023-02-26T03:56:33;2.70;;;2.20;;
47153;SDS011;32907;41.412;2.164;2023-02-26T03:59:06;3.95;;;2.60;;
47153;SDS011;32907;41.412;2.164;2023-02-26T04:02:03;3.45;;;2.22;;
47153;SDS011;32907;41.412;2.164;2023-02-26T04:04:48;3.65;;;2.60;;
47153;SDS011;32907;41.412;2.164;2023-02-26T04:07:25;3.38;;;2.30;;
47153;SDS011;32907;41.412;2.164;2023-02-26T04:09:53;3.65;;;2.75;;
47153;SDS011;32907;41.412;2.164;2023-02-26T04:12:26;3.30;;;2.40;;
47153;SDS011;32907;41.412;2.164;2023-02-26T04:14:55;3.08;;;2.28;;
47153;SDS011;32907;41.412;2.164;2023-02-26T04:17:25;3.25;;;2.40;;
47153;SDS011;32907;41.412;2.164;2023-02-26T04:19:56;4.25;;;2.53;;
47153;SDS011;32907;41.412;2.164;2023-02-26T04:22:26;3.92;;;2.40;;
47153;SDS011;32907;41.412;2.164;2023-02-26T04:24:56;3.47;;;2.38;;
47153;SDS011;32907;41.412;2.164;2023-02-26T04:27:24;3.20;;;2.30;;
47153;SDS011;32907;41.412;2.164;2023-02-26T04:29:52;3.15;;;2.33;;
47153;SDS011;32907;41.412;2.164;2023-02-26T04:32:22;2.72;;;2.05;;
47153;SDS011;32907;41.412;2.164;2023-02-26T04:34:51;4.28;;;2.13;;
47153;SDS011;32907;41.412;2.164;2023-02-26T04:37:18;3.00;;;2.10;;
47153;SDS011;32907;41.412;2.164;2023-02-26T04:39:47;2.50;;;2.08;;
47153;SDS011;32907;41.412;2.164;2023-02-26T04:42:15;4.03;;;2.10;;
47153;SDS011;32907;41.412;2.164;2023-02-26T04:44:43;2.83;;;1.98;;
47153;SDS011;32907;41.412;2.164;2023-02-26T04:47:12;2.88;;;1.77;;
47153;SDS011;32907;41.412;2.164;2023-02-26T04:49:42;2.13;;;1.63;;
47153;SDS011;32907;41.412;2.164;2023-02-26T04:52:11;2.75;;;1.90;;
47153;SDS011;32907;41.412;2.164;2023-02-26T04:54:39;2.63;;;1.73;;
47153;SDS011;32907;41.412;2.164;2023-02-26T04:57:09;2.88;;;1.80;;
47153;SDS011;32907;41.412;2.164;2023-02-26T04:59:37;2.38;;;1.70;;
47153;SDS011;32907;41.412;2.164;2023-02-26T05:02:06;3.03;;;1.95;;
47153;SDS011;32907;41.412;2.164;2023-02-26T05:04:38;2.80;;;1.90;;
47153;SDS011;32907;41.412;2.164;2023-02-26T05:07:06;3.20;;;2.20;;
47153;SDS011;32907;41.412;2.164;2023-02-26T05:09:34;3.38;;;2.00;;
47153;SDS011;32907;41.412;2.164;2023-02-26T05:12:02;2.53;;;2.03;;
47153;SDS011;32907;41.412;2.164;2023-02-26T05:14:31;2.97;;;1.90;;
47153;SDS011;32907;41.412;2.164;2023-02-26T05:16:59;2.40;;;1.67;;
47153;SDS011;32907;41.412;2.164;2023-02-26T05:19:27;2.92;;;1.90;;
47153;SDS011;32907;41.412;2.164;2023-02-26T05:21:55;2.67;;;1.95;;
47153;SDS011;32907;41.412;2.164;2023-02-26T05:24:23;2.83;;;2.17;;
47153;SDS011;32907;41.412;2.164;2023-02-26T05:26:51;2.63;;;1.83;;
47153;SDS011;32907;41.412;2.164;2023-02-26T05:29:20;2.67;;;1.88;;
47153;SDS011;32907;41.412;2.164;2023-02-26T05:31:49;2.92;;;2.10;;
47153;SDS011;32907;41.412;2.164;2023-02-26T05:34:18;3.47;;;2.25;;
47153;SDS011;32907;41.412;2.164;2023-02-26T05:36:45;3.72;;;2.33;;
47153;SDS011;32907;41.412;2.164;2023-02-26T05:39:13;5.20;;;2.50;;
47153;SDS011;32907;41.412;2.164;2023-02-26T05:41:41;2.85;;;2.20;;
47153;SDS011;32907;41.412;2.164;2023-02-26T05:44:09;3.42;;;2.10;;
47153;SDS011;32907;41.412;2.164;2023-02-26T05:46:37;3.72;;;2.20;;
47153;SDS011;32907;41.412;2.164;2023-02-26T05:49:05;2.65;;;2.22;;
47153;SDS011;32907;41.412;2.164;2023-02-26T05:51:33;3.35;;;2.40;;
47153;SDS011;32907;41.412;2.164;2023-02-26T05:54:01;2.80;;;2.20;;
47153;SDS011;32907;41.412;2.164;2023-02-26T05:56:29;3.35;;;2.42;;
47153;SDS011;32907;41.412;2.164;2023-02-26T05:58:58;3.00;;;2.20;;
47153;SDS011;32907;41.412;2.164;2023-02-26T06:01:25;3.25;;;2.22;;
47153;SDS011;32907;41.412;2.164;2023-02-26T06:03:53;3.53;;;2.20;;
47153;SDS011;32907;41.412;2.164;2023-02-26T06:06:23;3.85;;;2.08;;
47153;SDS011;32907;41.412;2.164;2023-02-26T06:08:53;3.95;;;2.90;;
47153;SDS011;32907;41.412;2.164;2023-02-26T06:11:21;3.92;;;2.60;;
47153;SDS011;32907;41.412;2.164;2023-02-26T06:13:49;3.72;;;2.55;;
47153;SDS011;32907;41.412;2.164;2023-02-26T06:16:17;3.28;;;2.20;;
47153;SDS011;32907;41.412;2.164;2023-02-26T06:18:46;2.83;;;2.28;;
47153;SDS011;32907;41.412;2.164;2023-02-26T06:21:15;5.00;;;3.03;;
47153;SDS011;32907;41.412;2.164;2023-02-26T06:23:44;3.72;;;2.63;;
47153;SDS011;32907;41.412;2.164;2023-02-26T06:26:12;3.30;;;2.30;;
47153;SDS011;32907;41.412;2.164;2023-02-26T06:28:40;2.83;;;2.08;;
47153;SDS011;32907;41.412;2.164;2023-02-26T06:31:09;4.25;;;2.75;;
47153;SDS011;32907;41.412;2.164;2023-02-26T06:33:37;3.25;;;2.20;;
47153;SDS011;32907;41.412;2.164;2023-02-26T06:36:05;3.53;;;2.45;;
47153;SDS011;32907;41.412;2.164;2023-02-26T06:38:33;3.50;;;2.45;;
47153;SDS011;32907;41.412;2.164;2023-02-26T06:41:03;3.53;;;2.58;;
47153;SDS011;32907;41.412;2.164;2023-02-26T06:43:31;3.05;;;2.22;;
47153;SDS011;32907;41.412;2.164;2023-02-26T06:45:59;4.03;;;2.33;;
47153;SDS011;32907;41.412;2.164;2023-02-26T06:48:27;4.03;;;2.30;;
47153;SDS011;32907;41.412;2.164;2023-02-26T06:50:55;3.50;;;2.47;;
47153;SDS011;32907;41.412;2.164;2023-02-26T06:53:25;3.78;;;2.53;;
47153;SDS011;32907;41.412;2.164;2023-02-26T06:57:17;3.28;;;2.50;;
47153;SDS011;32907;41.412;2.164;2023-02-26T06:59:45;3.92;;;2.53;;
47153;SDS011;32907;41.412;2.164;2023-02-26T07:02:17;3.65;;;2.78;;
47153;SDS011;32907;41.412;2.164;2023-02-26T07:04:46;3.75;;;2.33;;
47153;SDS011;32907;41.412;2.164;2023-02-26T07:07:14;3.45;;;2.78;;
47153;SDS011;32907;41.412;2.164;2023-02-26T07:09:42;3.92;;;2.35;;
47153;SDS011;32907;41.412;2.164;2023-02-26T07:12:12;5.13;;;2.60;;
47153;SDS011;32907;41.412;2.164;2023-02-26T07:14:40;4.00;;;2.40;;
47153;SDS011;32907;41.412;2.164;2023-02-26T07:17:11;3.63;;;2.55;;
47153;SDS011;32907;41.412;2.164;2023-02-26T07:22:40;3.88;;;2.40;;
47153;SDS011;32907;41.412;2.164;2023-02-26T07:25:09;3.38;;;2.30;;
47153;SDS011;32907;41.412;2.164;2023-02-26T07:27:39;3.47;;;2.40;;
47153;SDS011;32907;41.412;2.164;2023-02-26T07:30:10;3.85;;;2.30;;
47153;SDS011;32907;41.412;2.164;2023-02-26T07:32:40;3.13;;;2.25;;
47153;SDS011;32907;41.412;2.164;2023-02-26T07:35:08;3.80;;;2.10;;
47153;SDS011;32907;41.412;2.164;2023-02-26T07:37:36;2.55;;;1.90;;
47153;SDS011;32907;41.412;2.164;2023-02-26T07:40:05;7.32;;;2.78;;
47153;SDS011;32907;41.412;2.164;2023-02-26T07:42:33;3.72;;;2.13;;
47153;SDS011;32907;41.412;2.164;2023-02-26T07:45:02;3.83;;;2.70;;
47153;SDS011;32907;41.412;2.164;2023-02-26T07:47:30;4.22;;;2.72;;
47153;SDS011;32907;41.412;2.164;2023-02-26T07:49:59;4.78;;;3.35;;
47153;SDS011;32907;41.412;2.164;2023-02-26T07:52:30;7.03;;;3.88;;
47153;SDS011;32907;41.412;2.164;2023-02-26T07:54:59;6.43;;;3.42;;
47153;SDS011;32907;41.412;2.164;2023-02-26T07:57:27;4.38;;;2.90;;
47153;SDS011;32907;41.412;2.164;2023-02-26T07:59:55;3.03;;;2.35;;
47153;SDS011;32907;41.412;2.164;2023-02-26T08:02:23;3.47;;;2.60;;
47153;SDS011;32907;41.412;2.164;2023-02-26T08:04:53;7.60;;;2.53;;
47153;SDS011;32907;41.412;2.164;2023-02-26T08:07:21;7.47;;;2.67;;
47153;SDS011;32907;41.412;2.164;2023-02-26T08:09:49;4.53;;;2.50;;
47153;SDS011;32907;41.412;2.164;2023-02-26T08:12:17;4.60;;;2.50;;
47153;SDS011;32907;41.412;2.164;2023-02-26T08:14:45;3.47;;;2.50;;
47153;SDS011;32907;41.412;2.164;2023-02-26T08:17:14;5.50;;;2.80;;
47153;SDS011;32907;41.412;2.164;2023-02-26T08:19:45;4.35;;;2.38;;
47153;SDS011;32907;41.412;2.164;2023-02-26T08:22:13;3.83;;;2.50;;
47153;SDS011;32907;41.412;2.164;2023-02-26T08:24:41;3.20;;;2.40;;
47153;SDS011;32907;41.412;2.164;2023-02-26T08:27:09;6.95;;;3.47;;
47153;SDS011;32907;41.412;2.164;2023-02-26T08:29:39;4.90;;;3.30;;
47153;SDS011;32907;41.412;2.164;2023-02-26T08:32:07;4.93;;;4.03;;
47153;SDS011;32907;41.412;2.164;2023-02-26T08:34:35;5.75;;;4.20;;
47153;SDS011;32907;41.412;2.164;2023-02-26T08:37:03;5.10;;;4.00;;
47153;SDS011;32907;41.412;2.164;2023-02-26T08:39:31;4.47;;;3.88;;
47153;SDS011;32907;41.412;2.164;2023-02-26T08:42:04;5.10;;;3.83;;
47153;SDS011;32907;41.412;2.164;2023-02-26T08:44:33;5.05;;;3.63;;
47153;SDS011;32907;41.412;2.164;2023-02-26T08:47:01;4.78;;;3.97;;
47153;SDS011;32907;41.412;2.164;2023-02-26T08:49:30;6.38;;;4.35;;
47153;SDS011;32907;41.412;2.164;2023-02-26T08:51:58;6.00;;;4.00;;
47153;SDS011;32907;41.412;2.164;2023-02-26T08:54:26;5.53;;;4.03;;
47153;SDS011;32907;41.412;2.164;2023-02-26T08:56:59;10.15;;;4.53;;
47153;SDS011;32907;41.412;2.164;2023-02-26T08:59:26;6.38;;;4.85;;
47153;SDS011;32907;41.412;2.164;2023-02-26T09:01:54;7.18;;;5.30;;
47153;SDS011;32907;41.412;2.164;2023-02-26T09:04:22;7.50;;;4.72;;
47153;SDS011;32907;41.412;2.164;2023-02-26T09:06:50;5.47;;;4.38;;
47153;SDS011;32907;41.412;2.164;2023-02-26T09:09:19;6.75;;;4.60;;
47153;SDS011;32907;41.412;2.164;2023-02-26T09:11:47;5.63;;;4.38;;
47153;SDS011;32907;41.412;2.164;2023-02-26T09:14:15;4.78;;;3.83;;
47153;SDS011;32907;41.412;2.164;2023-02-26T09:16:43;5.35;;;4.50;;
47153;SDS011;32907;41.412;2.164;2023-02-26T09:19:11;9.02;;;4.75;;
47153;SDS011;32907;41.412;2.164;2023-02-26T09:21:39;7.07;;;5.00;;
47153;SDS011;32907;41.412;2.164;2023-02-26T09:24:07;12.77;;;5.50;;
47153;SDS011;32907;41.412;2.164;2023-02-26T09:26:35;10.38;;;7.13;;
47153;SDS011;32907;41.412;2.164;2023-02-26T09:29:04;33.47;;;9.32;;
47153;SDS011;32907;41.412;2.164;2023-02-26T09:31:33;15.00;;;7.65;;
47153;SDS011;32907;41.412;2.164;2023-02-26T09:34:01;9.70;;;6.80;;
47153;SDS011;32907;41.412;2.164;2023-02-26T09:36:30;7.10;;;5.05;;
47153;SDS011;32907;41.412;2.164;2023-02-26T09:38:58;11.38;;;6.03;;
47153;SDS011;32907;41.412;2.164;2023-02-26T09:41:28;7.05;;;4.50;;
47153;SDS011;32907;41.412;2.164;2023-02-26T09:46:43;8.80;;;4.20;;
47153;SDS011;32907;41.412;2.164;2023-02-26T09:49:19;10.25;;;5.65;;
47153;SDS011;32907;41.412;2.164;2023-02-26T09:54:50;9.63;;;5.00;;
47153;SDS011;32907;41.412;2.164;2023-02-26T09:57:31;12.80;;;5.93;;
47153;SDS011;32907;41.412;2.164;2023-02-26T10:00:03;12.20;;;4.78;;
47153;SDS011;32907;41.412;2.164;2023-02-26T10:02:47;9.07;;;4.88;;
47153;SDS011;32907;41.412;2.164;2023-02-26T10:05:44;11.02;;;5.38;;
47153;SDS011;32907;41.412;2.164;2023-02-26T10:08:39;13.18;;;4.63;;
47153;SDS011;32907;41.412;2.164;2023-02-26T10:11:13;8.48;;;4.47;;
47153;SDS011;32907;41.412;2.164;2023-02-26T10:14:00;8.15;;;4.05;;
47153;SDS011;32907;41.412;2.164;2023-02-26T10:16:46;8.93;;;4.15;;
47153;SDS011;32907;41.412;2.164;2023-02-26T10:19:19;10.68;;;5.88;;
47153;SDS011;32907;41.412;2.164;2023-02-26T10:22:03;13.07;;;6.45;;
47153;SDS011;32907;41.412;2.164;2023-02-26T10:24:45;11.25;;;5.57;;
47153;SDS011;32907;41.412;2.164;2023-02-26T10:27:28;7.30;;;4.72;;
47153;SDS011;32907;41.412;2.164;2023-02-26T10:32:37;11.65;;;6.18;;
47153;SDS011;32907;41.412;2.164;2023-02-26T10:35:14;11.95;;;5.22;;
47153;SDS011;32907;41.412;2.164;2023-02-26T10:43:23;6.38;;;4.53;;
47153;SDS011;32907;41.412;2.164;2023-02-26T10:51:55;9.43;;;4.93;;
47153;SDS011;32907;41.412;2.164;2023-02-26T10:54:36;7.30;;;5.03;;
47153;SDS011;32907;41.412;2.164;2023-02-26T10:57:18;7.82;;;5.30;;
47153;SDS011;32907;41.412;2.164;2023-02-26T10:59:50;7.15;;;5.47;;
47153;SDS011;32907;41.412;2.164;2023-02-26T11:02:35;25.63;;;17.67;;
47153;SDS011;32907;41.412;2.164;2023-02-26T11:05:28;44.20;;;29.15;;
47153;SDS011;32907;41.412;2.164;2023-02-26T11:08:00;58.88;;;39.70;;
47153;SDS011;32907;41.412;2.164;2023-02-26T11:10:46;68.97;;;45.83;;
47153;SDS011;32907;41.412;2.164;2023-02-26T11:13:20;46.80;;;32.50;;
47153;SDS011;32907;41.412;2.164;2023-02-26T11:15:52;39.85;;;25.80;;
47153;SDS011;32907;41.412;2.164;2023-02-26T11:18:24;31.35;;;21.40;;
47153;SDS011;32907;41.412;2.164;2023-02-26T11:21:02;31.20;;;20.35;;
47153;SDS011;32907;41.412;2.164;2023-02-26T11:23:31;32.05;;;23.48;;
47153;SDS011;32907;41.412;2.164;2023-02-26T11:26:07;28.35;;;21.73;;
47153;SDS011;32907;41.412;2.164;2023-02-26T11:28:47;38.22;;;25.75;;
47153;SDS011;32907;41.412;2.164;2023-02-26T11:31:18;32.33;;;20.13;;
47153;SDS011;32907;41.412;2.164;2023-02-26T11:33:52;28.13;;;17.20;;
47153;SDS011;32907;41.412;2.164;2023-02-26T11:36:28;25.60;;;15.35;;
47153;SDS011;32907;41.412;2.164;2023-02-26T11:41:36;15.43;;;10.55;;
47153;SDS011;32907;41.412;2.164;2023-02-26T11:44:12;12.77;;;8.50;;
47153;SDS011;32907;41.412;2.164;2023-02-26T11:46:52;10.40;;;6.65;;
47153;SDS011;32907;41.412;2.164;2023-02-26T11:49:25;8.60;;;6.22;;
47153;SDS011;32907;41.412;2.164;2023-02-26T11:52:13;10.02;;;6.18;;
47153;SDS011;32907;41.412;2.164;2023-02-26T11:55:02;7.85;;;5.65;;
47153;SDS011;32907;41.412;2.164;2023-02-26T11:57:36;6.15;;;4.43;;
47153;SDS011;32907;41.412;2.164;2023-02-26T12:00:17;7.32;;;6.22;;
47153;SDS011;32907;41.412;2.164;2023-02-26T12:02:50;8.63;;;6.57;;
47153;SDS011;32907;41.412;2.164;2023-02-26T12:05:27;9.38;;;7.38;;
47153;SDS011;32907;41.412;2.164;2023-02-26T12:07:56;11.45;;;7.90;;
47153;SDS011;32907;41.412;2.164;2023-02-26T12:11:19;8.65;;;6.68;;
47153;SDS011;32907;41.412;2.164;2023-02-26T12:16:37;16.05;;;11.80;;
47153;SDS011;32907;41.412;2.164;2023-02-26T12:19:17;30.55;;;15.93;;
47153;SDS011;32907;41.412;2.164;2023-02-26T12:22:26;22.58;;;12.73;;
47153;SDS011;32907;41.412;2.164;2023-02-26T12:34:48;12.85;;;9.13;;
47153;SDS011;32907;41.412;2.164;2023-02-26T12:43:05;18.00;;;8.77;;
47153;SDS011;32907;41.412;2.164;2023-02-26T12:45:46;12.07;;;8.38;;
47153;SDS011;32907;41.412;2.164;2023-02-26T12:56:25;11.20;;;8.30;;
47153;SDS011;32907;41.412;2.164;2023-02-26T13:16:51;10.00;;;7.30;;
47153;SDS011;32907;41.412;2.164;2023-02-26T13:19:33;7.95;;;6.65;;
47153;SDS011;32907;41.412;2.164;2023-02-26T13:22:16;8.70;;;6.53;;
47153;SDS011;32907;41.412;2.164;2023-02-26T13:25:33;24.45;;;14.35;;
47153;SDS011;32907;41.412;2.164;2023-02-26T13:27:53;20.25;;;11.77;;
47153;SDS011;32907;41.412;2.164;2023-02-26T13:32:57;11.43;;;7.72;;
47153;SDS011;32907;41.412;2.164;2023-02-26T13:35:33;11.38;;;8.55;;
47153;SDS011;32907;41.412;2.164;2023-02-26T13:38:16;9.38;;;6.80;;
47153;SDS011;32907;41.412;2.164;2023-02-26T13:40:56;10.98;;;7.15;;
47153;SDS011;32907;41.412;2.164;2023-02-26T13:48:50;9.88;;;8.48;;
47153;SDS011;32907;41.412;2.164;2023-02-26T13:51:43;8.05;;;6.97;;
47153;SDS011;32907;41.412;2.164;2023-02-26T13:56:43;19.42;;;13.75;;
47153;SDS011;32907;41.412;2.164;2023-02-26T13:59:46;28.42;;;17.63;;
47153;SDS011;32907;41.412;2.164;2023-02-26T14:04:50;27.10;;;17.17;;
47153;SDS011;32907;41.412;2.164;2023-02-26T14:13:22;21.98;;;14.75;;
47153;SDS011;32907;41.412;2.164;2023-02-26T14:16:11;39.78;;;31.42;;
47153;SDS011;32907;41.412;2.164;2023-02-26T14:24:17;46.47;;;30.60;;
47153;SDS011;32907;41.412;2.164;2023-02-26T14:26:48;38.75;;;22.55;;
47153;SDS011;32907;41.412;2.164;2023-02-26T14:29:25;36.30;;;22.83;;
47153;SDS011;32907;41.412;2.164;2023-02-26T14:32:14;27.52;;;17.50;;
47153;SDS011;32907;41.412;2.164;2023-02-26T14:34:53;18.65;;;13.38;;
47153;SDS011;32907;41.412;2.164;2023-02-26T14:37:26;15.43;;;11.15;;
47153;SDS011;32907;41.412;2.164;2023-02-26T14:42:36;11.82;;;8.27;;
47153;SDS011;32907;41.412;2.164;2023-02-26T14:45:17;9.95;;;7.10;;
47153;SDS011;32907;41.412;2.164;2023-02-26T14:48:02;10.68;;;6.82;;
47153;SDS011;32907;41.412;2.164;2023-02-26T14:53:18;10.63;;;6.53;;
47153;SDS011;32907;41.412;2.164;2023-02-26T15:07:55;8.38;;;5.93;;
47153;SDS011;32907;41.412;2.164;2023-02-26T15:19:31;7.80;;;5.15;;
47153;SDS011;32907;41.412;2.164;2023-02-26T15:25:18;6.72;;;4.55;;
47153;SDS011;32907;41.412;2.164;2023-02-26T15:28:00;7.40;;;4.72;;
47153;SDS011;32907;41.412;2.164;2023-02-26T15:30:31;6.28;;;4.97;;
47153;SDS011;32907;41.412;2.164;2023-02-26T15:33:02;7.47;;;5.10;;
47153;SDS011;32907;41.412;2.164;2023-02-26T15:35:34;7.38;;;5.03;;
47153;SDS011;32907;41.412;2.164;2023-02-26T15:38:04;8.45;;;4.90;;
47153;SDS011;32907;41.412;2.164;2023-02-26T15:40:33;6.40;;;5.05;;
47153;SDS011;32907;41.412;2.164;2023-02-26T15:43:07;6.55;;;4.65;;
47153;SDS011;32907;41.412;2.164;2023-02-26T15:45:45;8.85;;;5.78;;
47153;SDS011;32907;41.412;2.164;2023-02-26T15:48:19;7.78;;;6.22;;
47153;SDS011;32907;41.412;2.164;2023-02-26T15:50:53;21.55;;;17.65;;
47153;SDS011;32907;41.412;2.164;2023-02-26T15:53:49;31.80;;;26.15;;
47153;SDS011;32907;41.412;2.164;2023-02-26T15:56:22;32.47;;;29.00;;
47153;SDS011;32907;41.412;2.164;2023-02-26T15:59:03;34.17;;;29.45;;
47153;SDS011;32907;41.412;2.164;2023-02-26T16:01:40;25.17;;;21.98;;
47153;SDS011;32907;41.412;2.164;2023-02-26T16:04:11;19.83;;;16.13;;
47153;SDS011;32907;41.412;2.164;2023-02-26T16:06:44;16.38;;;11.07;;
47153;SDS011;32907;41.412;2.164;2023-02-26T16:09:24;12.00;;;9.25;;
47153;SDS011;32907;41.412;2.164;2023-02-26T16:11:58;8.38;;;7.43;;
47153;SDS011;32907;41.412;2.164;2023-02-26T16:14:33;7.60;;;6.80;;
47153;SDS011;32907;41.412;2.164;2023-02-26T16:17:05;6.97;;;5.88;;
47153;SDS011;32907;41.412;2.164;2023-02-26T16:19:39;5.60;;;4.85;;
47153;SDS011;32907;41.412;2.164;2023-02-26T16:24:49;5.60;;;4.00;;
47153;SDS011;32907;41.412;2.164;2023-02-26T16:27:29;5.43;;;4.10;;
47153;SDS011;32907;41.412;2.164;2023-02-26T16:29:59;5.60;;;4.07;;
47153;SDS011;32907;41.412;2.164;2023-02-26T16:32:36;6.07;;;5.00;;
47153;SDS011;32907;41.412;2.164;2023-02-26T16:35:10;9.38;;;7.10;;
47153;SDS011;32907;41.412;2.164;2023-02-26T16:37:44;8.35;;;6.78;;
47153;SDS011;32907;41.412;2.164;2023-02-26T16:43:02;6.78;;;6.03;;
47153;SDS011;32907;41.412;2.164;2023-02-26T16:45:43;7.30;;;6.25;;
47153;SDS011;32907;41.412;2.164;2023-02-26T16:48:17;7.03;;;5.88;;
47153;SDS011;32907;41.412;2.164;2023-02-26T16:51:05;7.43;;;4.55;;
47153;SDS011;32907;41.412;2.164;2023-02-26T16:53:53;5.03;;;4.25;;
47153;SDS011;32907;41.412;2.164;2023-02-26T16:56:28;6.35;;;4.82;;
47153;SDS011;32907;41.412;2.164;2023-02-26T16:59:19;6.00;;;4.70;;
47153;SDS011;32907;41.412;2.164;2023-02-26T17:01:54;5.47;;;4.72;;
47153;SDS011;32907;41.412;2.164;2023-02-26T17:04:28;8.95;;;4.97;;
47153;SDS011;32907;41.412;2.164;2023-02-26T17:07:04;6.72;;;4.35;;
47153;SDS011;32907;41.412;2.164;2023-02-26T17:09:44;5.85;;;4.70;;
47153;SDS011;32907;41.412;2.164;2023-02-26T17:12:18;6.57;;;5.28;;
47153;SDS011;32907;41.412;2.164;2023-02-26T17:14:54;5.70;;;5.10;;
47153;SDS011;32907;41.412;2.164;2023-02-26T17:17:25;5.70;;;5.07;;
47153;SDS011;32907;41.412;2.164;2023-02-26T17:19:56;6.97;;;5.65;;
47153;SDS011;32907;41.412;2.164;2023-02-26T17:22:25;6.95;;;5.47;;
47153;SDS011;32907;41.412;2.164;2023-02-26T17:24:55;6.82;;;5.47;;
47153;SDS011;32907;41.412;2.164;2023-02-26T17:27:30;5.70;;;5.15;;
47153;SDS011;32907;41.412;2.164;2023-02-26T17:30:03;6.13;;;4.82;;
47153;SDS011;32907;41.412;2.164;2023-02-26T17:32:32;6.15;;;4.53;;
47153;SDS011;32907;41.412;2.164;2023-02-26T17:35:02;5.68;;;3.95;;
47153;SDS011;32907;41.412;2.164;2023-02-26T17:37:32;7.78;;;4.35;;
47153;SDS011;32907;41.412;2.164;2023-02-26T17:40:02;5.18;;;4.38;;
47153;SDS011;32907;41.412;2.164;2023-02-26T17:42:32;5.72;;;4.30;;
47153;SDS011;32907;41.412;2.164;2023-02-26T17:45:03;4.93;;;4.20;;
47153;SDS011;32907;41.412;2.164;2023-02-26T17:47:32;4.70;;;4.00;;
47153;SDS011;32907;41.412;2.164;2023-02-26T17:50:00;6.13;;;3.95;;
47153;SDS011;32907;41.412;2.164;2023-02-26T17:52:28;5.30;;;4.30;;
47153;SDS011;32907;41.412;2.164;2023-02-26T17:54:58;5.03;;;4.07;;
47153;SDS011;32907;41.412;2.164;2023-02-26T17:57:27;6.63;;;4.38;;
47153;SDS011;32907;41.412;2.164;2023-02-26T17:59:59;6.07;;;4.65;;
47153;SDS011;32907;41.412;2.164;2023-02-26T18:02:41;4.63;;;3.70;;
47153;SDS011;32907;41.412;2.164;2023-02-26T18:05:09;5.72;;;4.10;;
47153;SDS011;32907;41.412;2.164;2023-02-26T18:07:44;5.50;;;4.50;;
47153;SDS011;32907;41.412;2.164;2023-02-26T18:10:17;5.43;;;4.03;;
47153;SDS011;32907;41.412;2.164;2023-02-26T18:12:51;6.85;;;4.20;;
47153;SDS011;32907;41.412;2.164;2023-02-26T18:15:19;5.38;;;4.53;;
47153;SDS011;32907;41.412;2.164;2023-02-26T18:17:48;5.70;;;3.95;;